Time;durP1;ratioP1;P1;durP2;ratioP2;P2;SDS_P1;SDS_P2;PMS_P1;PMS_P2;Temp;Humidity;BMP_temperature;BMP_pressure;BME280_temperature;BME280_humidity;BME280_pressure;Samples;Min_cycle;Max_cycle;Signal;HPM_P1;HPM_P2
2023/08/23 00:01:28;;;;;;;8.50;3.35;;;20.70;71.60;;;;;;5023613;28;20037;-69
2023/08/23 00:03:54;;;;;;;7.57;3.50;;;20.70;71.70;;;;;;5021009;28;20025;-69
2023/08/23 00:06:19;;;;;;;7.22;3.58;;;20.70;71.70;;;;;;5024966;28;20366;-69
2023/08/23 00:08:45;;;;;;;8.57;3.58;;;20.60;71.70;;;;;;5022823;28;21255;-69
2023/08/23 00:11:11;;;;;;;7.30;3.28;;;20.60;71.80;;;;;;5024963;28;20087;-69
2023/08/23 00:13:36;;;;;;;8.95;3.85;;;20.60;71.90;;;;;;5024207;28;20042;-69
2023/08/23 00:16:02;;;;;;;7.90;3.38;;;20.60;72.00;;;;;;5047413;28;20025;-69
2023/08/23 00:18:28;;;;;;;8.23;3.60;;;20.60;72.00;;;;;;5021788;28;20014;-69
2023/08/23 00:20:54;;;;;;;9.43;3.50;;;20.60;72.00;;;;;;5019669;28;20336;-69
2023/08/23 00:23:19;;;;;;;8.98;4.03;;;20.60;72.00;;;;;;5026271;28;20028;-69
2023/08/23 00:25:45;;;;;;;7.25;3.90;;;20.60;72.10;;;;;;5015291;28;20134;-69
2023/08/23 00:28:11;;;;;;;9.00;4.10;;;20.50;72.10;;;;;;5024831;28;20084;-69
2023/08/23 00:30:37;;;;;;;7.13;4.03;;;20.50;72.20;;;;;;5022917;28;20550;-69
2023/08/23 00:33:03;;;;;;;7.80;3.55;;;20.50;72.20;;;;;;5025223;28;20025;-69
2023/08/23 00:35:28;;;;;;;7.22;3.50;;;20.50;72.20;;;;;;5021602;28;20033;-69
2023/08/23 00:37:54;;;;;;;7.93;3.85;;;20.40;72.10;;;;;;5026813;28;21618;-69
2023/08/23 00:40:20;;;;;;;8.43;3.97;;;20.50;72.20;;;;;;5022861;28;20029;-69
2023/08/23 00:42:46;;;;;;;8.85;3.88;;;20.40;72.20;;;;;;5023457;28;20061;-69
2023/08/23 00:45:12;;;;;;;6.90;3.72;;;20.40;72.20;;;;;;5021736;28;20355;-69
2023/08/23 00:47:38;;;;;;;6.97;3.40;;;20.40;72.30;;;;;;5022022;28;20073;-69
2023/08/23 00:50:04;;;;;;;8.05;3.47;;;20.40;72.30;;;;;;5042890;28;20037;-69
2023/08/23 00:52:30;;;;;;;6.60;3.60;;;20.40;72.30;;;;;;5020040;28;20042;-69
2023/08/23 00:54:57;;;;;;;9.05;3.50;;;20.30;72.40;;;;;;5024061;28;20450;-69
2023/08/23 00:57:25;;;;;;;7.65;3.80;;;20.30;72.40;;;;;;5037306;28;20029;-69
2023/08/23 00:59:50;;;;;;;8.95;3.80;;;20.30;72.40;;;;;;5020622;28;20034;-69
2023/08/23 01:02:16;;;;;;;8.95;3.75;;;20.30;72.40;;;;;;5025298;28;20079;-69
2023/08/23 01:08:45;;;;;;;8.00;3.95;;;20.30;72.50;;;;;;5019650;28;20326;-69
2023/08/23 01:11:24;;;;;;;7.13;3.92;;;20.20;72.50;;;;;;5024986;28;20038;-69
2023/08/23 01:13:52;;;;;;;7.60;4.07;;;20.20;72.60;;;;;;5009727;28;20363;-69
2023/08/23 01:16:20;;;;;;;8.05;4.05;;;20.20;72.60;;;;;;5025209;28;20025;-69
2023/08/23 01:18:47;;;;;;;7.53;4.38;;;20.20;72.70;;;;;;5024862;28;20021;-69
2023/08/23 01:21:18;;;;;;;7.25;4.07;;;20.20;72.60;;;;;;5038009;28;20036;-69
2023/08/23 01:23:44;;;;;;;6.97;3.75;;;20.20;72.60;;;;;;5023975;28;20053;-69
2023/08/23 01:26:10;;;;;;;6.65;3.50;;;20.20;72.60;;;;;;5027238;28;20053;-69
2023/08/23 01:28:36;;;;;;;6.25;3.65;;;20.10;72.60;;;;;;5017243;28;20058;-69
2023/08/23 01:31:07;;;;;;;8.00;3.70;;;20.10;72.60;;;;;;5022753;28;20045;-69
2023/08/23 01:33:36;;;;;;;7.03;3.75;;;20.10;72.70;;;;;;5025858;28;20042;-69
2023/08/23 01:36:09;;;;;;;7.53;3.60;;;20.10;72.70;;;;;;5016953;28;21086;-69
2023/08/23 01:38:38;;;;;;;8.68;3.67;;;20.10;72.70;;;;;;5025122;28;20120;-69
2023/08/23 01:41:05;;;;;;;7.72;3.80;;;20.10;72.70;;;;;;5051910;28;20030;-69
2023/08/23 01:43:31;;;;;;;8.25;4.10;;;20.10;72.70;;;;;;5027075;28;20044;-69
2023/08/23 01:45:56;;;;;;;7.63;4.05;;;20.10;72.80;;;;;;5024293;28;20438;-69
2023/08/23 01:48:22;;;;;;;7.38;3.60;;;20.00;72.80;;;;;;5025105;28;20036;-69
2023/08/23 01:50:50;;;;;;;7.72;3.90;;;20.00;72.80;;;;;;5025593;28;20037;-69
2023/08/23 01:53:18;;;;;;;8.18;3.28;;;20.00;72.90;;;;;;5029772;28;20434;-69
2023/08/23 01:55:45;;;;;;;7.82;3.92;;;20.00;72.90;;;;;;5013867;28;20422;-69
2023/08/23 01:58:11;;;;;;;7.90;3.65;;;20.00;72.90;;;;;;5025722;28;20072;-69
2023/08/23 02:00:36;;;;;;;9.15;3.28;;;20.00;72.90;;;;;;5015085;28;20037;-69
2023/08/23 02:03:02;;;;;;;8.63;3.67;;;20.00;72.90;;;;;;5025209;28;20041;-69
2023/08/23 02:05:31;;;;;;;6.45;3.45;;;19.90;72.90;;;;;;5023060;28;20469;-69
2023/08/23 02:07:58;;;;;;;7.90;3.63;;;19.90;72.90;;;;;;5029289;28;20366;-69
2023/08/23 02:10:24;;;;;;;7.55;3.78;;;19.90;72.90;;;;;;5023900;28;20026;-69
2023/08/23 02:12:49;;;;;;;7.00;3.30;;;19.90;73.00;;;;;;5032996;28;20037;-69
2023/08/23 02:15:15;;;;;;;7.50;3.70;;;19.80;73.00;;;;;;5024678;28;20026;-69
2023/08/23 02:17:41;;;;;;;7.68;3.55;;;19.90;73.00;;;;;;5028012;28;20030;-68
2023/08/23 02:20:07;;;;;;;6.05;3.30;;;19.80;73.00;;;;;;5021292;28;20022;-68
2023/08/23 02:22:33;;;;;;;7.93;3.70;;;19.80;73.10;;;;;;5027847;28;20107;-69
2023/08/23 02:25:02;;;;;;;6.93;3.28;;;19.80;73.10;;;;;;5024210;28;20029;-68
2023/08/23 02:27:29;;;;;;;7.35;3.67;;;19.80;73.10;;;;;;5025407;28;20431;-69
2023/08/23 02:29:54;;;;;;;7.68;3.80;;;19.80;73.10;;;;;;5022023;28;20053;-68
2023/08/23 02:32:20;;;;;;;6.82;3.40;;;19.80;73.10;;;;;;5026553;28;20079;-69
2023/08/23 02:34:47;;;;;;;8.02;3.70;;;19.80;73.20;;;;;;5025005;28;20044;-69
2023/08/23 02:37:13;;;;;;;7.38;3.67;;;19.70;73.20;;;;;;5030684;28;20450;-68
2023/08/23 02:39:39;;;;;;;7.13;3.70;;;19.70;73.20;;;;;;5023159;28;20451;-69
2023/08/23 02:42:05;;;;;;;8.18;4.35;;;19.70;73.20;;;;;;5025001;28;20032;-68
2023/08/23 02:44:31;;;;;;;7.93;3.45;;;19.70;73.30;;;;;;5024659;28;20037;-68
2023/08/23 02:46:58;;;;;;;6.47;3.22;;;19.70;73.30;;;;;;5010037;28;20113;-69
2023/08/23 02:49:24;;;;;;;7.35;3.80;;;19.60;73.30;;;;;;5024091;28;20113;-69
2023/08/23 02:51:50;;;;;;;8.65;3.75;;;19.60;73.30;;;;;;5023972;28;20021;-69
2023/08/23 02:54:15;;;;;;;9.55;3.97;;;19.60;73.30;;;;;;5024048;28;20030;-69
2023/08/23 02:56:41;;;;;;;7.15;3.53;;;19.60;73.40;;;;;;5004763;28;20017;-68
2023/08/23 02:59:07;;;;;;;7.95;3.85;;;19.60;73.40;;;;;;5013331;28;20017;-69
2023/08/23 03:01:34;;;;;;;7.72;3.50;;;19.60;73.40;;;;;;5019645;28;20049;-69
2023/08/23 03:07:54;;;;;;;7.00;3.20;;;19.50;73.30;;;;;;5032403;28;20040;-69
2023/08/23 03:10:20;;;;;;;8.30;3.95;;;19.50;73.40;;;;;;5032965;28;20033;-69
2023/08/23 03:12:46;;;;;;;7.72;3.65;;;19.50;73.50;;;;;;5033782;28;20029;-69
2023/08/23 03:15:12;;;;;;;8.07;3.92;;;19.50;73.60;;;;;;5067816;28;20405;-69
2023/08/23 03:17:37;;;;;;;7.32;3.53;;;19.50;73.60;;;;;;5036989;28;20060;-69
2023/08/23 03:20:04;;;;;;;6.60;3.55;;;19.50;73.60;;;;;;5035590;28;20029;-69
2023/08/23 03:22:32;;;;;;;6.75;3.47;;;19.50;73.70;;;;;;5063326;28;20033;-69
2023/08/23 03:24:58;;;;;;;7.60;3.30;;;19.50;73.70;;;;;;5014234;28;20026;-69
2023/08/23 03:27:24;;;;;;;6.53;3.55;;;19.50;73.70;;;;;;5059339;28;20029;-69
2023/08/23 03:29:51;;;;;;;8.00;4.05;;;19.50;73.80;;;;;;5031071;28;20033;-68
2023/08/23 03:32:19;;;;;;;6.68;3.72;;;19.50;73.80;;;;;;5037093;28;20029;-69
2023/08/23 03:34:45;;;;;;;7.35;3.88;;;19.50;73.80;;;;;;5024701;28;20087;-69
2023/08/23 03:37:12;;;;;;;7.88;3.35;;;19.50;73.80;;;;;;5037966;28;20033;-69
2023/08/23 03:39:38;;;;;;;7.75;3.50;;;19.50;73.80;;;;;;5025969;28;20488;-69
2023/08/23 03:42:04;;;;;;;7.60;3.92;;;19.40;73.70;;;;;;5044392;28;20030;-69
2023/08/23 03:44:30;;;;;;;8.45;3.55;;;19.40;73.80;;;;;;5026605;28;20046;-69
2023/08/23 03:46:57;;;;;;;7.30;3.53;;;19.40;73.90;;;;;;5055651;28;20108;-69
2023/08/23 03:49:23;;;;;;;6.88;3.78;;;19.40;74.00;;;;;;5024520;28;20037;-68
2023/08/23 03:51:48;;;;;;;7.32;3.88;;;19.40;74.00;;;;;;5030056;28;20040;-69
2023/08/23 03:54:15;;;;;;;7.43;3.55;;;19.40;74.10;;;;;;5018033;28;20033;-69
2023/08/23 03:56:42;;;;;;;6.57;3.55;;;19.40;74.20;;;;;;5026084;28;20111;-69
2023/08/23 03:59:08;;;;;;;6.95;3.60;;;19.40;74.20;;;;;;5019444;28;20022;-68
2023/08/23 04:01:33;;;;;;;6.40;3.20;;;19.40;74.30;;;;;;5033281;28;20034;-69
2023/08/23 04:03:59;;;;;;;6.10;3.28;;;19.40;74.30;;;;;;5025177;28;20364;-69
2023/08/23 04:06:25;;;;;;;7.03;3.88;;;19.40;74.40;;;;;;5021422;28;20044;-69
2023/08/23 04:08:51;;;;;;;7.00;3.60;;;19.30;74.40;;;;;;5021169;28;20030;-69
2023/08/23 04:11:16;;;;;;;8.73;3.83;;;19.30;74.40;;;;;;5014165;28;20037;-69
2023/08/23 04:13:42;;;;;;;6.57;3.40;;;19.30;74.50;;;;;;5019973;28;20060;-69
2023/08/23 04:16:12;;;;;;;8.20;3.85;;;19.30;74.60;;;;;;5016399;28;20049;-69
2023/08/23 04:18:37;;;;;;;8.30;3.75;;;19.30;74.60;;;;;;5022425;28;20029;-68
2023/08/23 04:21:03;;;;;;;6.97;3.38;;;19.30;74.70;;;;;;5016607;28;20371;-70
2023/08/23 04:23:29;;;;;;;6.97;3.55;;;19.30;74.70;;;;;;5021997;28;20030;-69
2023/08/23 04:25:56;;;;;;;7.20;3.72;;;19.30;74.70;;;;;;5024807;28;20022;-68
2023/08/23 04:28:22;;;;;;;8.05;3.95;;;19.30;74.80;;;;;;5050023;28;20634;-69
2023/08/23 04:30:48;;;;;;;9.77;4.28;;;19.30;74.80;;;;;;5009466;28;20170;-69
2023/08/23 04:33:15;;;;;;;8.30;4.30;;;19.30;74.90;;;;;;5016159;28;20053;-69
2023/08/23 04:35:42;;;;;;;8.60;4.30;;;19.30;75.00;;;;;;5028752;28;20022;-68
2023/08/23 04:38:13;;;;;;;8.88;4.60;;;19.30;75.00;;;;;;5035115;28;20029;-69
2023/08/23 04:40:39;;;;;;;9.75;5.13;;;19.30;75.10;;;;;;5046240;28;20024;-69
2023/08/23 04:43:05;;;;;;;9.63;5.25;;;19.30;75.10;;;;;;5025615;28;20022;-69
2023/08/23 04:45:31;;;;;;;10.05;4.80;;;19.30;75.20;;;;;;5057261;28;20017;-68
2023/08/23 04:47:57;;;;;;;8.90;5.10;;;19.30;75.20;;;;;;5034544;28;20025;-68
2023/08/23 04:50:23;;;;;;;11.02;5.78;;;19.30;75.30;;;;;;5016902;28;20121;-69
2023/08/23 04:52:51;;;;;;;9.80;5.63;;;19.30;75.30;;;;;;5033659;28;20200;-69
2023/08/23 04:55:17;;;;;;;9.55;5.93;;;19.40;75.40;;;;;;5025722;28;20129;-69
2023/08/23 04:57:42;;;;;;;8.85;5.47;;;19.40;75.40;;;;;;5036886;28;20026;-69
2023/08/23 05:00:09;;;;;;;9.73;6.22;;;19.40;75.40;;;;;;5032023;28;20018;-69
2023/08/23 05:02:36;;;;;;;9.98;5.55;;;19.40;75.40;;;;;;5033483;28;20064;-69
2023/08/23 05:05:03;;;;;;;9.15;5.40;;;19.40;75.50;;;;;;5033281;28;20048;-69
2023/08/23 05:07:29;;;;;;;9.27;5.53;;;19.40;75.50;;;;;;5032570;28;20060;-69
2023/08/23 05:09:55;;;;;;;9.98;5.10;;;19.40;75.60;;;;;;5050193;28;20053;-69
2023/08/23 05:12:20;;;;;;;10.25;6.10;;;19.40;75.60;;;;;;5069039;28;20033;-69
2023/08/23 05:14:46;;;;;;;9.70;5.72;;;19.40;75.70;;;;;;5038246;28;20056;-69
2023/08/23 05:17:14;;;;;;;11.60;5.65;;;19.50;75.80;;;;;;5037037;28;20049;-69
2023/08/23 05:19:40;;;;;;;9.52;5.55;;;19.50;75.90;;;;;;5037216;28;20467;-68
2023/08/23 05:22:05;;;;;;;9.27;5.88;;;19.50;75.80;;;;;;5039029;28;20418;-68
2023/08/23 05:24:31;;;;;;;10.35;6.03;;;19.50;75.90;;;;;;5035610;28;20033;-69
2023/08/23 05:26:57;;;;;;;9.07;6.13;;;19.60;75.90;;;;;;5050690;28;20029;-69
2023/08/23 05:29:23;;;;;;;10.90;5.50;;;19.60;75.90;;;;;;5022973;28;20033;-68
2023/08/23 05:31:48;;;;;;;8.95;5.47;;;19.70;76.00;;;;;;5015867;28;20084;-69
2023/08/23 05:34:14;;;;;;;10.20;6.30;;;19.70;76.10;;;;;;5024970;28;20110;-69
2023/08/23 05:36:41;;;;;;;10.05;5.80;;;19.70;76.00;;;;;;5003987;28;20112;-69
2023/08/23 05:39:10;;;;;;;10.18;6.18;;;19.70;76.00;;;;;;5027924;28;20121;-69
2023/08/23 05:41:35;;;;;;;9.52;5.60;;;19.70;76.00;;;;;;5021894;28;20022;-69
2023/08/23 05:44:01;;;;;;;9.38;6.43;;;19.80;76.10;;;;;;5009574;28;20036;-68
2023/08/23 05:46:27;;;;;;;10.68;5.47;;;19.80;76.00;;;;;;5028915;28;20064;-69
2023/08/23 05:48:53;;;;;;;9.82;5.50;;;19.90;76.10;;;;;;5053421;28;20034;-69
2023/08/23 05:51:19;;;;;;;10.10;6.30;;;19.90;76.00;;;;;;5020035;28;20092;-70
2023/08/23 05:53:44;;;;;;;10.27;6.55;;;20.00;76.10;;;;;;5024019;28;20034;-70
2023/08/23 05:56:10;;;;;;;12.90;6.38;;;20.00;76.10;;;;;;5058545;28;20075;-70
2023/08/23 05:58:36;;;;;;;10.90;6.35;;;20.00;76.10;;;;;;5025910;28;20877;-70
2023/08/23 06:01:02;;;;;;;12.88;6.82;;;20.10;76.10;;;;;;5048579;28;20114;-71
2023/08/23 06:03:27;;;;;;;13.65;6.32;;;20.10;75.90;;;;;;5037885;28;20041;-71
2023/08/23 06:05:55;;;;;;;11.18;6.38;;;20.20;75.90;;;;;;5043504;28;20181;-69
2023/08/23 06:08:21;;;;;;;11.65;7.03;;;20.20;75.80;;;;;;5032771;28;20359;-70
2023/08/23 06:10:47;;;;;;;12.48;6.75;;;20.30;75.80;;;;;;5024516;28;20034;-70
2023/08/23 06:13:12;;;;;;;11.40;7.38;;;20.30;75.80;;;;;;5033153;28;20032;-71
2023/08/23 06:15:39;;;;;;;11.32;7.38;;;20.70;75.20;;;;;;5046492;28;20045;-70
2023/08/23 06:18:05;;;;;;;11.10;7.15;;;21.10;74.10;;;;;;5019825;28;20488;-69
2023/08/23 06:20:31;;;;;;;10.23;6.97;;;21.40;73.50;;;;;;5032302;28;20443;-69
2023/08/23 06:22:58;;;;;;;9.70;6.72;;;21.70;72.60;;;;;;5036305;28;20025;-70
2023/08/23 06:25:24;;;;;;;11.52;6.53;;;22.20;71.50;;;;;;5038920;28;20034;-70
2023/08/23 06:27:50;;;;;;;10.70;7.07;;;22.40;70.70;;;;;;5009657;28;20340;-70
2023/08/23 06:30:16;;;;;;;11.73;7.65;;;22.40;70.70;;;;;;5048860;28;20026;-71
2023/08/23 06:32:46;;;;;;;10.50;7.38;;;22.30;70.90;;;;;;5036503;28;20163;-71
2023/08/23 06:35:13;;;;;;;10.43;7.22;;;22.20;71.00;;;;;;5022286;28;20458;-70
2023/08/23 06:37:40;;;;;;;11.73;6.68;;;22.20;71.20;;;;;;5025526;28;20108;-70
2023/08/23 06:40:08;;;;;;;13.15;7.22;;;22.20;71.40;;;;;;5015635;28;20346;-71
2023/08/23 06:42:34;;;;;;;13.23;7.43;;;22.20;71.20;;;;;;5019900;28;20105;-71
2023/08/23 06:45:00;;;;;;;9.90;6.45;;;22.20;71.10;;;;;;5029046;28;20037;-70
2023/08/23 06:47:26;;;;;;;12.75;6.38;;;22.30;71.00;;;;;;5035323;28;20053;-71
2023/08/23 06:49:52;;;;;;;11.55;6.65;;;22.40;70.70;;;;;;5025869;28;20026;-71
2023/08/23 06:52:17;;;;;;;9.48;6.15;;;22.50;70.50;;;;;;5010541;28;20033;-70
2023/08/23 06:54:43;;;;;;;11.80;6.55;;;22.60;70.50;;;;;;5021248;28;20465;-70
2023/08/23 06:57:09;;;;;;;10.23;6.53;;;22.60;70.10;;;;;;5027987;28;20039;-72
2023/08/23 06:59:35;;;;;;;10.00;7.07;;;22.70;69.90;;;;;;5022550;28;20040;-70
2023/08/23 07:02:00;;;;;;;10.45;6.50;;;22.90;69.70;;;;;;5033997;28;20033;-71
2023/08/23 07:04:26;;;;;;;9.52;5.95;;;23.00;69.30;;;;;;5036828;28;20367;-71
2023/08/23 07:06:52;;;;;;;10.07;6.53;;;23.10;68.70;;;;;;5035272;28;20044;-71
2023/08/23 07:09:18;;;;;;;13.07;7.07;;;23.20;68.30;;;;;;5020419;28;20136;-71
2023/08/23 07:11:43;;;;;;;9.73;5.25;;;23.30;67.90;;;;;;5035285;28;20048;-71
2023/08/23 07:14:09;;;;;;;9.88;5.70;;;23.50;67.60;;;;;;5036987;28;20041;-69
2023/08/23 07:16:35;;;;;;;8.43;5.15;;;23.50;67.10;;;;;;5021001;28;20075;-72
2023/08/23 07:19:03;;;;;;;9.20;4.90;;;23.60;66.90;;;;;;5029868;28;20025;-72
2023/08/23 07:21:29;;;;;;;11.82;5.78;;;23.80;66.60;;;;;;5034762;28;20053;-71
2023/08/23 07:23:56;;;;;;;9.27;5.50;;;23.90;65.90;;;;;;5031981;28;20029;-71
2023/08/23 07:26:21;;;;;;;8.45;4.88;;;24.00;65.70;;;;;;5034888;28;20036;-71
2023/08/23 07:28:47;;;;;;;9.57;5.07;;;24.10;65.50;;;;;;5035850;28;20030;-71
2023/08/23 07:31:13;;;;;;;8.50;5.72;;;24.20;65.30;;;;;;5021091;28;20033;-72
2023/08/23 07:33:39;;;;;;;9.18;5.38;;;24.30;65.00;;;;;;5035493;28;20029;-72
2023/08/23 07:36:05;;;;;;;9.52;4.95;;;24.40;64.70;;;;;;5059192;28;20382;-72
2023/08/23 07:38:32;;;;;;;11.20;5.28;;;24.50;64.20;;;;;;5037005;28;20497;-71
2023/08/23 07:41:02;;;;;;;8.10;4.35;;;24.70;63.70;;;;;;5034576;28;20431;-67
2023/08/23 07:43:28;;;;;;;8.90;4.10;;;24.80;63.50;;;;;;5049827;28;20112;-67
2023/08/23 07:45:54;;;;;;;7.85;3.92;;;24.90;63.10;;;;;;5031073;28;20108;-66
2023/08/23 07:48:25;;;;;;;8.45;4.25;;;25.10;62.70;;;;;;5035567;28;20029;-66
2023/08/23 07:50:52;;;;;;;6.88;3.88;;;25.20;62.00;;;;;;5031845;28;20052;-66
2023/08/23 07:53:18;;;;;;;8.43;3.72;;;25.30;61.50;;;;;;5033621;28;20025;-66
2023/08/23 07:55:44;;;;;;;7.28;3.83;;;25.40;61.20;;;;;;5034150;28;20040;-67
2023/08/23 07:58:10;;;;;;;7.03;3.72;;;25.50;60.90;;;;;;5026559;28;20025;-68
2023/08/23 08:00:36;;;;;;;7.68;3.60;;;25.60;60.40;;;;;;5029567;28;20028;-67
2023/08/23 08:03:03;;;;;;;7.57;3.80;;;25.70;60.30;;;;;;5024026;28;20038;-68
2023/08/23 08:05:29;;;;;;;8.85;3.42;;;25.80;60.00;;;;;;5026546;28;20347;-64
2023/08/23 08:07:55;;;;;;;7.05;3.83;;;26.00;59.80;;;;;;5006599;28;20041;-65
2023/08/23 08:10:21;;;;;;;7.53;3.30;;;26.00;59.30;;;;;;5024746;28;20029;-66
2023/08/23 08:12:47;;;;;;;7.43;3.17;;;26.10;59.30;;;;;;5023899;28;20378;-65
2023/08/23 08:15:13;;;;;;;5.97;3.00;;;26.20;59.20;;;;;;5019965;28;20069;-66
2023/08/23 08:17:39;;;;;;;7.40;3.33;;;26.30;59.10;;;;;;5024543;28;20025;-70
2023/08/23 08:20:08;;;;;;;8.45;3.95;;;26.30;58.70;;;;;;5023019;28;20418;-70
2023/08/23 08:22:34;;;;;;;7.80;3.30;;;26.50;58.40;;;;;;5023895;28;20096;-70
2023/08/23 08:25:00;;;;;;;6.95;3.13;;;26.60;58.20;;;;;;5022794;28;20095;-70
2023/08/23 08:27:26;;;;;;;8.90;3.03;;;26.70;57.90;;;;;;5028315;28;20060;-70
2023/08/23 08:29:52;;;;;;;7.55;3.10;;;26.80;57.70;;;;;;5024724;28;20056;-70
2023/08/23 08:32:18;;;;;;;7.63;3.25;;;26.90;57.40;;;;;;5024507;28;20036;-70
2023/08/23 08:34:44;;;;;;;8.55;3.63;;;27.00;57.20;;;;;;5025835;28;20063;-69
2023/08/23 08:37:11;;;;;;;7.35;3.65;;;27.10;56.90;;;;;;5008371;28;20026;-69
2023/08/23 08:39:37;;;;;;;7.38;3.53;;;27.10;56.80;;;;;;5028682;28;20137;-69
2023/08/23 08:42:03;;;;;;;8.02;3.30;;;27.10;56.70;;;;;;5027738;28;20112;-71
2023/08/23 08:44:29;;;;;;;7.70;3.38;;;27.20;56.70;;;;;;5024452;28;20037;-71
2023/08/23 08:46:55;;;;;;;7.15;3.50;;;27.30;56.60;;;;;;5010500;28;20481;-71
2023/08/23 08:49:20;;;;;;;7.72;3.70;;;27.30;56.40;;;;;;5009524;28;20060;-71
2023/08/23 08:51:47;;;;;;;7.75;4.20;;;27.30;56.30;;;;;;5022797;28;20108;-70
2023/08/23 08:54:18;;;;;;;6.97;3.42;;;27.40;56.00;;;;;;5023238;28;20073;-71
2023/08/23 08:56:46;;;;;;;7.65;3.13;;;27.50;56.00;;;;;;5031200;28;20370;-70
2023/08/23 08:59:16;;;;;;;10.10;4.15;;;27.50;55.90;;;;;;5024242;28;20113;-70
2023/08/23 09:01:43;;;;;;;7.63;3.63;;;27.60;55.60;;;;;;5026775;28;20340;-71
2023/08/23 09:04:10;;;;;;;7.60;3.50;;;27.60;55.20;;;;;;5025550;28;20025;-70
2023/08/23 09:06:40;;;;;;;7.88;3.20;;;27.60;55.00;;;;;;5019973;28;20467;-71
2023/08/23 09:09:07;;;;;;;7.35;3.33;;;27.60;55.00;;;;;;5020335;28;20030;-70
2023/08/23 09:11:34;;;;;;;10.35;4.10;;;27.60;54.90;;;;;;5021329;28;20048;-71
2023/08/23 09:14:30;;;;;;;7.18;3.15;;;27.60;54.80;;;;;;5020150;28;20052;-70
2023/08/23 09:16:56;;;;;;;7.30;3.70;;;27.70;55.00;;;;;;5047236;28;20391;-71
2023/08/23 09:19:22;;;;;;;6.32;2.95;;;27.80;54.90;;;;;;5019950;28;20029;-71
2023/08/23 09:21:49;;;;;;;9.75;3.70;;;27.90;54.70;;;;;;5018211;28;20079;-70
2023/08/23 09:24:16;;;;;;;5.80;2.80;;;28.00;54.50;;;;;;5022397;28;20110;-70
2023/08/23 09:26:43;;;;;;;7.63;3.35;;;28.10;54.30;;;;;;5018638;28;20057;-69
2023/08/23 09:29:09;;;;;;;8.70;3.80;;;28.20;54.20;;;;;;5017855;28;20358;-68
2023/08/23 09:31:35;;;;;;;7.95;3.42;;;28.20;54.10;;;;;;5016351;28;20029;-70
2023/08/23 09:34:01;;;;;;;7.95;4.15;;;28.20;53.90;;;;;;5035394;28;20033;-70
2023/08/23 09:36:39;;;;;;;6.40;3.25;;;28.20;53.60;;;;;;5024816;28;20029;-70
2023/08/23 09:39:09;;;;;;;8.15;3.47;;;28.20;53.50;;;;;;5020844;28;20087;-70
2023/08/23 09:41:41;;;;;;;6.25;2.95;;;28.20;53.40;;;;;;5047101;28;20510;-70
2023/08/23 09:44:08;;;;;;;6.70;2.85;;;28.30;53.10;;;;;;5017281;28;20048;-70
2023/08/23 09:46:35;;;;;;;10.23;3.65;;;28.30;53.00;;;;;;5019318;28;20034;-70
2023/08/23 09:49:06;;;;;;;5.55;2.78;;;28.40;52.70;;;;;;5022237;28;20034;-71
2023/08/23 09:51:36;;;;;;;7.57;2.97;;;28.40;52.70;;;;;;5021403;28;20037;-70
2023/08/23 09:54:10;;;;;;;;;;;28.50;52.50;;;;;;5020947;28;20108;-70
2023/08/23 09:56:36;;;;;;;7.28;2.95;;;28.60;52.80;;;;;;5018873;28;19914;-70
2023/08/23 09:59:02;;;;;;;7.57;2.70;;;28.60;52.30;;;;;;5020835;28;20024;-71
2023/08/23 10:01:29;;;;;;;6.32;2.85;;;28.70;52.10;;;;;;5041124;28;20435;-70
2023/08/23 10:03:55;;;;;;;5.47;2.20;;;28.70;51.70;;;;;;5026288;28;20537;-70
2023/08/23 10:06:22;;;;;;;5.72;2.35;;;28.70;51.40;;;;;;5018932;28;20048;-70
2023/08/23 10:08:48;;;;;;;5.55;2.25;;;28.70;51.10;;;;;;5022821;28;20029;-70
2023/08/23 10:11:18;;;;;;;7.25;2.40;;;28.70;50.90;;;;;;5027453;28;20028;-70
2023/08/23 10:13:46;;;;;;;6.13;2.58;;;28.80;50.90;;;;;;5021056;28;20037;-69
2023/08/23 10:16:14;;;;;;;4.78;2.25;;;28.80;50.60;;;;;;5023800;28;20789;-69
2023/08/23 10:18:41;;;;;;;4.80;2.15;;;28.90;50.40;;;;;;5025161;28;20072;-70
2023/08/23 10:21:07;;;;;;;5.80;2.28;;;29.00;50.10;;;;;;5024763;28;20545;-69
2023/08/23 10:23:34;;;;;;;8.73;2.28;;;29.00;49.80;;;;;;5012262;28;20036;-70
2023/08/23 10:26:02;;;;;;;5.18;1.88;;;29.00;49.30;;;;;;5026000;28;20451;-71
2023/08/23 10:28:28;;;;;;;3.67;1.80;;;29.00;49.20;;;;;;5024497;28;20022;-70
2023/08/23 10:30:57;;;;;;;4.93;1.73;;;29.00;48.90;;;;;;5027229;28;20049;-71
2023/08/23 10:33:23;;;;;;;5.45;2.13;;;29.10;48.60;;;;;;5019462;28;20029;-70
2023/08/23 10:35:49;;;;;;;4.78;2.08;;;29.20;48.30;;;;;;5020397;28;20026;-70
2023/08/23 10:38:15;;;;;;;5.60;2.40;;;29.20;48.30;;;;;;5019369;28;20029;-70
2023/08/23 10:40:49;;;;;;;5.45;2.20;;;29.20;48.40;;;;;;5027581;28;20439;-70
2023/08/23 10:43:16;;;;;;;4.70;1.75;;;29.30;48.20;;;;;;5018560;28;20040;-69
2023/08/23 10:45:55;;;;;;;5.32;1.75;;;29.20;48.00;;;;;;5026799;28;20033;-69
2023/08/23 10:48:23;;;;;;;3.85;1.63;;;29.30;47.40;;;;;;5020099;28;20074;-70
2023/08/23 10:50:50;;;;;;;5.40;2.08;;;29.30;47.40;;;;;;5022649;28;20025;-69
2023/08/23 10:53:17;;;;;;;3.38;1.60;;;29.40;47.00;;;;;;5020346;28;20049;-70
2023/08/23 10:55:44;;;;;;;4.50;2.03;;;29.40;47.00;;;;;;5030280;28;20065;-70
2023/08/23 10:58:12;;;;;;;5.07;1.98;;;29.40;47.00;;;;;;5028556;28;20091;-70
2023/08/23 11:00:39;;;;;;;3.10;1.50;;;29.40;47.20;;;;;;5019240;28;20061;-69
2023/08/23 11:03:06;;;;;;;6.57;2.08;;;29.50;47.10;;;;;;5046974;28;20037;-69
2023/08/23 11:05:32;;;;;;;5.82;2.00;;;29.50;46.90;;;;;;5019290;28;20032;-70
2023/08/23 11:07:57;;;;;;;4.93;2.17;;;29.50;46.90;;;;;;5024574;28;20355;-69
2023/08/23 11:10:27;;;;;;;4.18;2.00;;;29.50;46.60;;;;;;5019447;28;20025;-69
2023/08/23 11:12:53;;;;;;;4.93;2.13;;;29.50;46.50;;;;;;5006631;28;20340;-71
2023/08/23 11:15:22;;;;;;;4.63;1.95;;;29.50;46.60;;;;;;5016048;28;20308;-70
2023/08/23 11:17:48;;;;;;;4.35;1.63;;;29.60;47.30;;;;;;5030061;28;20446;-70
2023/08/23 11:20:16;;;;;;;6.55;1.80;;;29.60;46.40;;;;;;5025684;28;20035;-70
2023/08/23 11:22:43;;;;;;;4.70;1.83;;;29.70;46.10;;;;;;5028036;28;20022;-70
2023/08/23 11:25:08;;;;;;;5.10;2.30;;;29.70;46.10;;;;;;5035799;28;20033;-70
2023/08/23 11:27:34;;;;;;;3.90;1.70;;;29.80;45.90;;;;;;5018750;28;20066;-70
2023/08/23 11:30:01;;;;;;;3.03;1.40;;;29.80;45.50;;;;;;5034321;28;20030;-70
2023/08/23 11:32:27;;;;;;;3.53;1.65;;;29.90;45.60;;;;;;5035816;28;20324;-70
2023/08/23 11:34:56;;;;;;;4.55;1.58;;;29.90;45.40;;;;;;5026415;28;20033;-70
2023/08/23 11:37:23;;;;;;;3.28;1.40;;;29.90;45.30;;;;;;5031805;28;20065;-70
2023/08/23 11:39:59;;;;;;;3.45;1.50;;;29.70;45.10;;;;;;5034261;28;20300;-70
2023/08/23 11:42:26;;;;;;;3.40;1.50;;;29.70;44.70;;;;;;5035696;28;20034;-70
2023/08/23 11:44:55;;;;;;;2.95;1.50;;;29.70;45.00;;;;;;5035039;28;20108;-70
2023/08/23 11:47:27;;;;;;;3.50;1.45;;;29.60;44.90;;;;;;5067770;28;20033;-70
2023/08/23 11:49:53;;;;;;;4.40;1.67;;;29.60;45.20;;;;;;5033620;28;20033;-70
2023/08/23 11:52:19;;;;;;;3.83;1.52;;;29.70;45.70;;;;;;5034722;28;20103;-70
2023/08/23 11:54:45;;;;;;;3.42;1.40;;;29.70;45.40;;;;;;5034647;28;20029;-70
2023/08/23 11:57:20;;;;;;;2.35;1.25;;;29.80;45.10;;;;;;5034737;28;20102;-70
2023/08/23 11:59:46;;;;;;;3.95;1.20;;;29.80;45.00;;;;;;5034664;28;20028;-70
2023/08/23 12:02:12;;;;;;;3.78;1.30;;;29.70;45.00;;;;;;5028716;28;20104;-70
2023/08/23 12:04:42;;;;;;;4.63;1.48;;;29.70;44.80;;;;;;5034398;28;20442;-70
2023/08/23 12:07:08;;;;;;;2.70;1.27;;;29.70;44.90;;;;;;5034311;28;20362;-70
2023/08/23 12:09:34;;;;;;;3.80;1.35;;;29.60;45.20;;;;;;5035362;28;20312;-69
2023/08/23 12:12:00;;;;;;;3.45;1.48;;;29.60;45.30;;;;;;5032646;28;20045;-70
2023/08/23 12:14:28;;;;;;;3.10;1.40;;;29.50;45.40;;;;;;5034483;28;20114;-70
2023/08/23 12:16:54;;;;;;;2.83;1.30;;;29.50;45.50;;;;;;5035405;28;20354;-70
2023/08/23 12:19:21;;;;;;;4.75;1.48;;;29.40;45.60;;;;;;5035373;28;20026;-70
2023/08/23 12:21:47;;;;;;;4.97;1.58;;;29.30;46.50;;;;;;5032482;28;20025;-70
2023/08/23 12:24:12;;;;;;;5.15;1.73;;;29.30;46.20;;;;;;5033173;28;20056;-69
2023/08/23 12:26:38;;;;;;;5.20;2.13;;;29.20;46.30;;;;;;5034404;28;20091;-70
2023/08/23 12:29:04;;;;;;;3.58;1.35;;;29.10;46.30;;;;;;5035158;28;20083;-69
2023/08/23 12:31:30;;;;;;;3.08;1.50;;;29.10;46.30;;;;;;5033205;28;20034;-69
2023/08/23 12:33:55;;;;;;;5.18;1.50;;;29.00;46.30;;;;;;5033278;28;20037;-70
2023/08/23 12:36:21;;;;;;;4.55;1.75;;;28.90;46.40;;;;;;5022584;28;20088;-70
2023/08/23 12:38:47;;;;;;;5.15;1.63;;;28.90;46.50;;;;;;5033995;28;20029;-69
2023/08/23 12:41:13;;;;;;;4.88;1.45;;;28.90;46.70;;;;;;5034450;28;20039;-70
2023/08/23 12:43:40;;;;;;;3.03;1.30;;;28.80;46.50;;;;;;5032725;28;20033;-69
2023/08/23 12:46:06;;;;;;;4.60;1.58;;;28.70;46.70;;;;;;5034746;28;20347;-69
2023/08/23 12:48:31;;;;;;;3.50;1.08;;;28.70;46.70;;;;;;5033834;28;20108;-69
2023/08/23 12:50:57;;;;;;;3.75;1.30;;;28.60;46.90;;;;;;5034107;28;20029;-69